This demonstration page uses our WeatherBlox Daily Observations layout. Learn more.

Hourly Observations for August 25, 2020

Temp ( °F °C ) Dew Point ( °F °C ) Humidity (%) Winds ( mph kmh ) Pressure ( in mb ) Visibility ( mi km ) Precip ( " mm )
12:33 am 00:33 Clear 93 33.9 47 8.3 21 21 ENE 17 28 29.7 1006 10 16.0934 0 0
12:51 am 00:51 Mostly Clear 92 33.3 48 8.9 22 22 ENE 10 17 29.78 1008 10 16.0934 0 0
1:51 am 01:51 Clear 90 32.2 50 10 25 25 E 10 17 29.8 1009 10 16.0934 0 0
2:51 am 02:51 Clear 87 30.6 49 9.4 27 27 ESE 6 9 29.78 1008 10 16.0934 0 0
3:51 am 03:51 Clear 84 28.9 49 9.4 30 30 ESE 6 9 29.75 1007 10 16.0934 0 0
4:51 am 04:51 Clear 85 29.4 51 10.6 31 31 E 8 13 29.75 1007 10 16.0934 0 0
5:51 am 05:51 Sunny 83 28.3 50 10 32 32 ESE 7 11 29.78 1008 10 16.0934 0 0
6:51 am 06:51 Sunny 85 29.4 50 10 30 30 ESE 6 9 29.79 1009 10 16.0934 0 0
7:51 am 07:51 Sunny 87 30.6 50 10 28 28 SSE 8 13 29.8 1009 10 16.0934 0 0
8:51 am 08:51 Sunny 90 32.2 51 10.6 26 26 SE 8 13 29.8 1009 10 16.0934 0 0
9:51 am 09:51 Sunny 94 34.4 45 7.2 18 18 E 13 20 29.79 1009 10 16.0934 0 0
10:51 am 10:51 Sunny 96 35.6 47 8.3 19 19 S 9 15 29.78 1009 10 16.0934 0 0
11:51 am 11:51 Sunny 99 37.2 44 6.7 15 15 SE 12 19 29.75 1008 10 16.0934 0 0
12:51 pm 12:51 Sunny 100 37.8 44 6.7 15 15 S 7 11 29.72 1007 10 16.0934 0 0
1:51 pm 13:51 Sunny 101 38.3 45 7.2 15 15 Calm 29.69 1006 10 16.0934 0 0
2:51 pm 14:51 Sunny 104 40 45 7.2 13 13 S 9 15 29.66 1004 10 16.0934 0 0
3:51 pm 15:51 Sunny 103 39.4 44 6.7 13 13 VRB 6 9 29.64 1004 10 16.0934 0 0
4:51 pm 16:51 Sunny 102 38.9 43 6.1 13 13 SSW 6 9 29.62 1003 10 16.0934 0 0
5:51 pm 17:51 Sunny 102 38.9 44 6.7 14 14 S 8 13 29.62 1003 10 16.0934 0 0
6:51 pm 18:51 Sunny 98 36.7 43 6.1 15 15 S 7 11 29.63 1004 10 16.0934 0 0
7:51 pm 19:51 Clear 95 35 43 6.1 17 17 SSE 8 13 29.65 1004 10 16.0934 0 0
8:51 pm 20:51 Clear 92 33.3 43 6.1 18 18 SSE 5 7 29.68 1005 10 16.0934 0 0
9:51 pm 21:51 Clear 89 31.7 43 6.1 20 20 SE 5 7 29.69 1005 10 16.0934 0 0
10:51 pm 22:51 Clear 85 29.4 42 5.6 22 22 ESE 6 9 29.7 1006 10 16.0934 0 0
11:51 pm 23:51 Clear 83 28.3 42 5.6 24 24 S 6 9 29.7 1006 10 16.0934 0 0

Powered by AerisWeather